WXM80 ListenWXM80 Stop

You find our weather info also at:

UK Metoffice

WeatherCloud

Weather Underground

Northeastern Weather Network

AWEKAS

Citizen Weather Observer Program (CWOP)

HAMweather, WeatherForYou, PWS Weather


Weather Underground History page Text

Daily Summary for October 25, 2016 Units:  English    Metric   Both
« Previous Day
Next Day »
Daily Weekly Monthly Yearly Custom
  High: Low: Average:
Temperature: 55.5 °F 44.3 °F 49.1 °F
Dew Point: 39.9 °F 28.2 °F 34.9 °F
Humidity: 73 % 46 % 59 %
Wind Speed: 13.0 mph 0.2 mph 5.1 mph
Wind Gust: 20.7 mph - -
Wind:- - West
Pressure: 30.31 in 30.08 in -
Precipitation: 0.00 in    
Historical Graphs
 
 
Tabular Data for October 25, 2016
Time Temperature Dew Point Pressure Wind Wind Speed Wind Gust Humidity Rainfall Rate (Hourly)
00:03 48.6 °F 38.1 °F 30.09 in SSW 5.3 mph 11.5 mph 67 % 0.00 in
00:08 48.6 °F 38.1 °F 30.09 in NNW 5.1 mph 8.1 mph 67 % 0.00 in
00:13 48.6 °F 37.7 °F 30.09 in WNW 3.2 mph 8.1 mph 66 % 0.00 in
00:17 48.5 °F 37.3 °F 30.09 in WNW 6.7 mph 13.8 mph 65 % 0.00 in
00:23 48.5 °F 37.7 °F 30.09 in NW 5.2 mph 12.7 mph 66 % 0.00 in
00:28 48.5 °F 38.0 °F 30.08 in SW 4.6 mph 12.7 mph 67 % 0.00 in
00:38 48.4 °F 37.9 °F 30.08 in NNW 5.6 mph 11.5 mph 67 % 0.00 in
00:42 48.4 °F 37.9 °F 30.08 in WSW 5.0 mph 9.2 mph 67 % 0.00 in
00:47 48.3 °F 37.8 °F 30.08 in West 4.8 mph 10.4 mph 67 % 0.00 in
00:52 48.3 °F 38.2 °F 30.08 in WNW 5.5 mph 11.5 mph 68 % 0.00 in
00:56 48.3 °F 38.2 °F 30.08 in WSW 3.9 mph 10.0 mph 68 % 0.00 in
01:01 48.3 °F 38.2 °F 30.08 in WNW 5.8 mph 11.5 mph 68 % 0.00 in
01:53 48.3 °F 37.8 °F 30.09 in WSW 7.1 mph 18.4 mph 67 % 0.00 in
02:03 48.2 °F 37.8 °F 30.09 in NW 3.3 mph 6.9 mph 67 % 0.00 in
02:08 48.1 °F 37.3 °F 30.09 in NW 4.5 mph 12.7 mph 66 % 0.00 in
02:13 48.1 °F 37.7 °F 30.09 in NNW 4.0 mph 4.6 mph 67 % 0.00 in
02:17 48.0 °F 37.6 °F 30.09 in WNW 2.9 mph 9.0 mph 67 % 0.00 in
02:22 48.0 °F 37.9 °F 30.09 in West 5.4 mph 10.4 mph 68 % 0.00 in
02:27 47.9 °F 37.8 °F 30.10 in West 4.2 mph 5.8 mph 68 % 0.00 in
02:33 47.9 °F 37.5 °F 30.10 in NW 5.8 mph 13.8 mph 67 % 0.00 in
02:36 47.8 °F 37.0 °F 30.10 in West 7.4 mph 16.1 mph 66 % 0.00 in
02:41 47.9 °F 37.1 °F 30.10 in NNW 8.2 mph 17.3 mph 66 % 0.00 in
02:45 47.8 °F 37.4 °F 30.10 in WNW 8.3 mph 20.7 mph 67 % 0.00 in
02:50 47.8 °F 37.4 °F 30.10 in WNW 7.1 mph 11.5 mph 67 % 0.00 in
02:54 47.9 °F 37.5 °F 30.10 in SW 5.2 mph 11.5 mph 67 % 0.00 in
02:59 47.9 °F 37.5 °F 30.11 in NW 5.1 mph 12.0 mph 67 % 0.00 in
03:04 47.9 °F 37.5 °F 30.10 in SW 5.3 mph 9.2 mph 67 % 0.00 in
03:09 47.9 °F 37.8 °F 30.10 in WNW 5.6 mph 8.1 mph 68 % 0.00 in
03:12 47.9 °F 37.8 °F 30.10 in West 3.4 mph 8.1 mph 68 % 0.00 in
03:17 47.9 °F 37.8 °F 30.10 in SW 2.2 mph 8.1 mph 68 % 0.00 in
03:22 47.8 °F 37.7 °F 30.10 in WNW 3.3 mph 6.9 mph 68 % 0.00 in
03:28 47.7 °F 37.7 °F 30.10 in North 2.9 mph 9.2 mph 68 % 0.00 in
03:33 47.6 °F 37.6 °F 30.10 in NW 5.3 mph 11.5 mph 68 % 0.00 in
03:36 47.6 °F 37.6 °F 30.10 in SW 3.9 mph 8.1 mph 68 % 0.00 in
03:43 47.6 °F 37.6 °F 30.10 in NW 3.2 mph 5.8 mph 68 % 0.00 in
03:48 47.5 °F 37.5 °F 30.10 in WNW 2.6 mph 9.0 mph 68 % 0.00 in
03:54 47.5 °F 37.5 °F 30.11 in WNW 5.1 mph 5.1 mph 68 % 0.00 in
04:03 47.4 °F 37.0 °F 30.10 in West 3.3 mph 10.4 mph 67 % 0.00 in
04:08 47.4 °F 37.4 °F 30.11 in West 1.3 mph 4.0 mph 68 % 0.00 in
04:13 47.3 °F 38.0 °F 30.11 in West 4.2 mph 8.1 mph 70 % 0.00 in
04:18 47.2 °F 37.5 °F 30.11 in NNW 4.5 mph 10.4 mph 69 % 0.00 in
04:22 47.2 °F 37.2 °F 30.11 in NNW 2.4 mph 12.7 mph 68 % 0.00 in
04:27 47.1 °F 37.4 °F 30.11 in WNW 2.9 mph 12.0 mph 69 % 0.00 in
04:33 47.1 °F 37.8 °F 30.11 in WSW 3.2 mph 6.9 mph 70 % 0.00 in
04:38 47.0 °F 37.7 °F 30.11 in SW 2.6 mph 6.9 mph 70 % 0.00 in
04:43 47.0 °F 38.1 °F 30.11 in WNW 3.6 mph 6.9 mph 71 % 0.00 in
04:45 46.9 °F 37.6 °F 30.12 in WNW 4.2 mph 13.0 mph 70 % 0.00 in
04:50 46.8 °F 38.2 °F 30.12 in WNW 5.7 mph 10.4 mph 72 % 0.00 in
04:55 46.8 °F 37.5 °F 30.12 in NW 3.2 mph 10.4 mph 70 % 0.00 in
04:57 46.8 °F 37.9 °F 30.12 in WNW 1.4 mph 6.9 mph 71 % 0.00 in
04:59 46.8 °F 37.9 °F 30.12 in WNW 4.9 mph 11.5 mph 71 % 0.00 in
05:04 46.8 °F 37.9 °F 30.12 in WSW 4.1 mph 6.0 mph 71 % 0.00 in
05:09 46.8 °F 37.9 °F 30.12 in NW 2.0 mph 4.0 mph 71 % 0.00 in
05:14 46.8 °F 37.9 °F 30.12 in WNW 5.8 mph 9.2 mph 71 % 0.00 in
05:19 46.9 °F 38.0 °F 30.12 in WSW 1.9 mph 4.0 mph 71 % 0.00 in
05:24 46.9 °F 38.0 °F 30.13 in West 1.6 mph 3.5 mph 71 % 0.00 in
05:28 46.9 °F 37.6 °F 30.13 in West 2.9 mph 8.1 mph 70 % 0.00 in
05:33 47.0 °F 37.7 °F 30.13 in SW 0.2 mph 4.6 mph 70 % 0.00 in
05:38 47.0 °F 37.7 °F 30.13 in WSW 2.4 mph 4.6 mph 70 % 0.00 in
05:42 47.0 °F 37.7 °F 30.13 in WNW 3.3 mph 8.0 mph 70 % 0.00 in
05:43 47.0 °F 37.7 °F 30.13 in WNW 5.0 mph 8.1 mph 70 % 0.00 in
05:48 47.0 °F 37.4 °F 30.13 in SW 4.7 mph 10.4 mph 69 % 0.00 in
05:53 47.0 °F 37.4 °F 30.13 in West 1.2 mph 5.0 mph 69 % 0.00 in
05:55 47.0 °F 37.4 °F 30.13 in NW 6.5 mph 9.2 mph 69 % 0.00 in
06:00 46.9 °F 37.3 °F 30.13 in WSW 2.8 mph 4.6 mph 69 % 0.00 in
06:05 46.9 °F 37.3 °F 30.13 in WSW 5.3 mph 9.2 mph 69 % 0.00 in
06:06 46.9 °F 37.3 °F 30.13 in West 2.9 mph 9.2 mph 69 % 0.00 in
06:11 46.9 °F 37.6 °F 30.13 in North 1.8 mph 4.0 mph 70 % 0.00 in
06:16 46.8 °F 37.5 °F 30.13 in WNW 3.2 mph 9.2 mph 70 % 0.00 in
06:21 46.8 °F 37.9 °F 30.13 in WNW 3.9 mph 8.1 mph 71 % 0.00 in
06:26 46.7 °F 37.4 °F 30.13 in SW 4.2 mph 8.1 mph 70 % 0.00 in
06:31 46.6 °F 37.3 °F 30.13 in WSW 5.1 mph 9.2 mph 70 % 0.00 in
06:36 46.6 °F 37.7 °F 30.13 in SW 2.6 mph 5.8 mph 71 % 0.00 in
06:41 46.5 °F 37.2 °F 30.13 in WSW 4.6 mph 9.2 mph 70 % 0.00 in
06:46 46.5 °F 37.6 °F 30.13 in West 1.2 mph 3.5 mph 71 % 0.00 in
06:50 46.4 °F 37.5 °F 30.14 in West 2.3 mph 11.5 mph 71 % 0.00 in
06:55 46.3 °F 37.4 °F 30.14 in SW 1.8 mph 3.5 mph 71 % 0.00 in
06:56 46.3 °F 37.4 °F 30.14 in WNW 1.7 mph 3.5 mph 71 % 0.00 in
07:02 46.1 °F 36.9 °F 30.14 in West 2.2 mph 6.9 mph 70 % 0.00 in
07:04 46.1 °F 36.9 °F 30.14 in WNW 1.2 mph 5.8 mph 70 % 0.00 in
07:06 46.1 °F 36.9 °F 30.14 in SW 2.7 mph 5.0 mph 70 % 0.00 in
07:11 46.0 °F 37.5 °F 30.14 in WSW 2.8 mph 5.8 mph 72 % 0.00 in
07:16 46.0 °F 37.1 °F 30.14 in SW 4.3 mph 5.8 mph 71 % 0.00 in
07:17 46.0 °F 37.1 °F 30.14 in West 3.7 mph 5.8 mph 71 % 0.00 in
07:22 45.9 °F 37.4 °F 30.14 in WNW 2.7 mph 5.8 mph 72 % 0.00 in
07:23 45.9 °F 37.4 °F 30.15 in West 4.8 mph 9.2 mph 72 % 0.00 in
07:28 45.9 °F 37.4 °F 30.15 in SW 4.2 mph 11.5 mph 72 % 0.00 in
07:33 45.9 °F 37.4 °F 30.15 in WSW 2.2 mph 5.8 mph 72 % 0.00 in
07:38 45.9 °F 37.4 °F 30.16 in WNW 4.2 mph 5.8 mph 72 % 0.00 in
07:43 45.9 °F 37.7 °F 30.16 in West 5.8 mph 8.1 mph 73 % 0.00 in
07:45 45.9 °F 37.7 °F 30.16 in NW 4.9 mph 12.0 mph 73 % 0.00 in
07:50 45.9 °F 37.4 °F 30.16 in ESE 5.1 mph 8.1 mph 72 % 0.00 in
07:56 46.0 °F 37.8 °F 30.16 in WNW 3.9 mph 10.4 mph 73 % 0.00 in
08:01 46.0 °F 37.8 °F 30.16 in WSW 4.9 mph 9.0 mph 73 % 0.00 in
08:04 46.1 °F 37.9 °F 30.17 in WNW 1.3 mph 6.0 mph 73 % 0.00 in
08:08 46.1 °F 37.9 °F 30.16 in West 1.8 mph 5.8 mph 73 % 0.00 in
08:13 46.1 °F 37.9 °F 30.16 in WSW 3.5 mph 8.1 mph 73 % 0.00 in
08:17 46.1 °F 37.9 °F 30.17 in WNW 4.2 mph 10.4 mph 73 % 0.00 in
08:22 46.2 °F 37.7 °F 30.17 in WSW 5.3 mph 8.0 mph 72 % 0.00 in
08:25 46.2 °F 37.7 °F 30.17 in West 6.0 mph 10.0 mph 72 % 0.00 in
08:31 46.3 °F 37.4 °F 30.17 in WSW 6.0 mph 12.0 mph 71 % 0.00 in
08:34 46.4 °F 37.5 °F 30.17 in West 6.4 mph 10.0 mph 71 % 0.00 in
08:39 46.5 °F 37.6 °F 30.17 in WNW 3.9 mph 10.4 mph 71 % 0.00 in
08:43 46.5 °F 37.6 °F 30.17 in WNW 7.4 mph 11.5 mph 71 % 0.00 in
08:51 46.6 °F 37.3 °F 30.17 in West 7.5 mph 16.1 mph 70 % 0.00 in
08:56 46.7 °F 37.1 °F 30.17 in WSW 6.8 mph 11.5 mph 69 % 0.00 in
09:01 46.8 °F 37.2 °F 30.17 in West 5.6 mph 12.7 mph 69 % 0.00 in
09:02 46.8 °F 37.2 °F 30.17 in WSW 6.1 mph 11.5 mph 69 % 0.00 in
09:07 46.9 °F 37.3 °F 30.17 in SW 4.7 mph 6.9 mph 69 % 0.00 in
09:12 47.0 °F 37.4 °F 30.17 in WNW 4.8 mph 9.2 mph 69 % 0.00 in
09:17 47.1 °F 37.1 °F 30.17 in NW 6.4 mph 8.0 mph 68 % 0.00 in
09:19 47.2 °F 37.2 °F 30.17 in NW 7.3 mph 7.3 mph 68 % 0.00 in
09:21 47.3 °F 36.9 °F 30.17 in NW 3.7 mph 12.7 mph 67 % 0.00 in
09:26 47.6 °F 37.6 °F 30.17 in SW 1.3 mph 7.0 mph 68 % 0.00 in
09:31 47.9 °F 37.5 °F 30.17 in West 2.1 mph 11.5 mph 67 % 0.00 in
09:36 48.2 °F 37.4 °F 30.17 in West 3.7 mph 11.5 mph 66 % 0.00 in
09:42 48.7 °F 37.8 °F 30.17 in WSW 6.5 mph 6.5 mph 66 % 0.00 in
09:44 48.8 °F 37.6 °F 30.17 in WNW 4.0 mph 6.0 mph 65 % 0.00 in
09:49 49.2 °F 37.5 °F 30.17 in WNW 7.0 mph 10.0 mph 64 % 0.00 in
09:54 49.5 °F 37.8 °F 30.17 in WSW 4.3 mph 10.0 mph 64 % 0.00 in
10:00 49.7 °F 37.6 °F 30.17 in SW 7.0 mph 13.8 mph 63 % 0.00 in
10:02 49.8 °F 37.3 °F 30.17 in WNW 6.0 mph 16.1 mph 62 % 0.00 in
10:04 49.8 °F 37.3 °F 30.17 in WSW 5.4 mph 11.5 mph 62 % 0.00 in
10:13 50.0 °F 37.5 °F 30.17 in NW 10.5 mph 16.1 mph 62 % 0.00 in
10:16 50.2 °F 37.7 °F 30.17 in NNW 3.6 mph 10.4 mph 62 % 0.00 in
10:18 50.3 °F 37.8 °F 30.17 in WNW 8.0 mph 12.7 mph 62 % 0.00 in
10:22 50.5 °F 38.0 °F 30.17 in West 9.9 mph 14.0 mph 62 % 0.00 in
10:27 50.6 °F 36.8 °F 30.16 in WSW 4.5 mph 16.1 mph 59 % 0.00 in
10:37 51.2 °F 36.9 °F 30.17 in West 4.0 mph 9.2 mph 58 % 0.00 in
10:42 51.5 °F 38.1 °F 30.17 in NW 6.5 mph 10.0 mph 60 % 0.00 in
10:53 52.1 °F 37.8 °F 30.17 in NW 5.3 mph 13.0 mph 58 % 0.00 in
10:56 52.3 °F 37.5 °F 30.17 in West 8.8 mph 17.3 mph 57 % 0.00 in
11:01 52.6 °F 36.9 °F 30.16 in NW 4.8 mph 11.5 mph 55 % 0.00 in
11:06 52.7 °F 37.4 °F 30.16 in North 3.6 mph 6.9 mph 56 % 0.00 in
11:08 52.7 °F 37.4 °F 30.16 in SW 8.1 mph 12.7 mph 56 % 0.00 in
11:10 52.9 °F 37.6 °F 30.16 in WNW 5.7 mph 12.7 mph 56 % 0.00 in
11:11 53.0 °F 37.7 °F 30.16 in West 2.6 mph 4.6 mph 56 % 0.00 in
11:16 53.1 °F 36.9 °F 30.16 in NNW 6.1 mph 10.4 mph 54 % 0.00 in
11:21 53.4 °F 38.1 °F 30.16 in West 2.4 mph 9.0 mph 56 % 0.00 in
11:24 53.6 °F 37.8 °F 30.16 in West 4.4 mph 8.1 mph 55 % 0.00 in
11:25 53.7 °F 37.9 °F 30.16 in WNW 3.0 mph 10.0 mph 55 % 0.00 in
11:30 53.9 °F 37.2 °F 30.16 in NW 5.0 mph 13.0 mph 53 % 0.00 in
11:35 54.3 °F 37.5 °F 30.17 in WNW 6.0 mph 8.1 mph 53 % 0.00 in
11:37 54.4 °F 37.1 °F 30.17 in WNW 5.2 mph 9.2 mph 52 % 0.00 in
11:41 54.4 °F 38.1 °F 30.17 in West 5.6 mph 13.0 mph 54 % 0.00 in
11:46 54.6 °F 38.3 °F 30.16 in WNW 6.3 mph 11.5 mph 54 % 0.00 in
11:53 54.9 °F 37.6 °F 30.16 in NE 4.1 mph 10.4 mph 52 % 0.00 in
11:56 55.0 °F 37.7 °F 30.16 in NW 5.3 mph 13.0 mph 52 % 0.00 in
12:01 55.2 °F 38.4 °F 30.15 in SW 4.1 mph 5.8 mph 53 % 0.00 in
12:02 55.3 °F 39.9 °F 30.15 in WSW 2.6 mph 9.0 mph 56 % 0.00 in
12:03 55.4 °F 38.5 °F 30.16 in West 9.2 mph 19.6 mph 53 % 0.00 in
12:08 55.4 °F 37.1 °F 30.15 in West 5.0 mph 11.5 mph 50 % 0.00 in
12:13 55.5 °F 37.7 °F 30.15 in WSW 8.3 mph 14.0 mph 51 % 0.00 in
12:19 55.3 °F 37.0 °F 30.16 in WSW 6.5 mph 18.0 mph 50 % 0.00 in
12:25 54.9 °F 36.1 °F 30.15 in NW 7.7 mph 17.3 mph 49 % 0.00 in
12:30 54.5 °F 35.7 °F 30.15 in West 6.0 mph 15.0 mph 49 % 0.00 in
12:35 53.7 °F 34.5 °F 30.15 in West 5.1 mph 15.0 mph 48 % 0.00 in
12:36 53.7 °F 35.0 °F 30.15 in SW 4.0 mph 15.0 mph 49 % 0.00 in
12:41 53.2 °F 35.0 °F 30.15 in WNW 7.7 mph 13.0 mph 50 % 0.00 in
12:46 52.6 °F 37.3 °F 30.15 in NW 6.6 mph 16.0 mph 56 % 0.00 in
12:48 52.4 °F 36.2 °F 30.15 in NNW 9.1 mph 19.6 mph 54 % 0.00 in
12:53 51.9 °F 35.3 °F 30.15 in WNW 5.5 mph 15.0 mph 53 % 0.00 in
12:58 51.6 °F 35.9 °F 30.15 in WNW 4.4 mph 11.5 mph 55 % 0.00 in
12:59 51.6 °F 35.5 °F 30.15 in NNW 7.0 mph 15.0 mph 54 % 0.00 in
13:03 51.5 °F 34.9 °F 30.15 in NE 5.9 mph 15.0 mph 53 % 0.00 in
13:07 51.5 °F 34.4 °F 30.15 in West 4.9 mph 17.3 mph 52 % 0.00 in
13:12 51.5 °F 35.9 °F 30.14 in WNW 4.5 mph 10.4 mph 55 % 0.00 in
13:16 51.6 °F 36.4 °F 30.14 in NW 4.3 mph 5.8 mph 56 % 0.00 in
13:21 52.0 °F 35.9 °F 30.14 in WSW 10.9 mph 16.0 mph 54 % 0.00 in
13:22 52.0 °F 35.9 °F 30.13 in WNW 10.2 mph 19.6 mph 54 % 0.00 in
13:23 52.1 °F 35.5 °F 30.14 in NW 6.0 mph 11.5 mph 53 % 0.00 in
13:29 52.7 °F 35.6 °F 30.13 in WSW 5.8 mph 11.5 mph 52 % 0.00 in
13:32 53.0 °F 34.3 °F 30.14 in WNW 6.2 mph 11.5 mph 49 % 0.00 in
13:35 53.2 °F 35.5 °F 30.14 in WNW 7.0 mph 18.0 mph 51 % 0.00 in
13:36 53.2 °F 35.0 °F 30.13 in NW 9.5 mph 12.7 mph 50 % 0.00 in
13:37 53.3 °F 34.6 °F 30.14 in ENE 5.4 mph 19.6 mph 49 % 0.00 in
13:40 53.2 °F 34.5 °F 30.14 in NW 6.9 mph 11.5 mph 49 % 0.00 in
13:42 53.2 °F 34.0 °F 30.14 in NW 7.3 mph 15.0 mph 48 % 0.00 in
13:47 53.1 °F 34.4 °F 30.14 in NNW 9.0 mph 18.4 mph 49 % 0.00 in
13:50 52.9 °F 34.2 °F 30.14 in West 4.6 mph 9.2 mph 49 % 0.00 in
13:54 52.7 °F 34.1 °F 30.14 in West 4.1 mph 11.5 mph 49 % 0.00 in
13:58 52.6 °F 33.5 °F 30.14 in WNW 7.3 mph 16.1 mph 48 % 0.00 in
14:03 52.3 °F 33.7 °F 30.13 in West 6.7 mph 12.7 mph 49 % 0.00 in
14:05 52.3 °F 34.7 °F 30.14 in West 7.6 mph 18.4 mph 51 % 0.00 in
14:10 52.1 °F 34.0 °F 30.14 in NW 3.9 mph 18.4 mph 50 % 0.00 in
14:14 51.9 °F 33.8 °F 30.14 in NNW 11.4 mph 17.3 mph 50 % 0.00 in
14:26 52.2 °F 33.6 °F 30.13 in NNE 3.8 mph 12.7 mph 49 % 0.00 in
14:40 52.7 °F 33.0 °F 30.13 in NW 6.4 mph 17.3 mph 47 % 0.00 in
14:44 52.9 °F 33.7 °F 30.13 in NW 4.2 mph 10.4 mph 48 % 0.00 in
14:45 53.0 °F 33.8 °F 30.14 in NW 5.1 mph 9.2 mph 48 % 0.00 in
14:50 53.0 °F 34.3 °F 30.14 in WNW 6.3 mph 12.0 mph 49 % 0.00 in
14:55 52.8 °F 34.2 °F 30.14 in NW 4.9 mph 17.3 mph 49 % 0.00 in
14:58 52.7 °F 33.5 °F 30.14 in NNW 5.2 mph 11.5 mph 48 % 0.00 in
15:01 52.6 °F 33.5 °F 30.14 in WNW 6.3 mph 11.5 mph 48 % 0.00 in
15:03 52.4 °F 33.8 °F 30.14 in WNW 6.9 mph 17.0 mph 49 % 0.00 in
15:05 52.2 °F 32.0 °F 30.14 in NW 4.9 mph 19.6 mph 46 % 0.00 in
15:10 51.9 °F 32.3 °F 30.15 in NW 8.8 mph 13.8 mph 47 % 0.00 in
15:15 51.8 °F 32.2 °F 30.15 in WSW 4.2 mph 12.7 mph 47 % 0.00 in
15:16 51.8 °F 33.2 °F 30.15 in NW 1.4 mph 6.9 mph 49 % 0.00 in
15:21 51.8 °F 32.2 °F 30.15 in WNW 6.2 mph 19.6 mph 47 % 0.00 in
15:22 51.8 °F 32.7 °F 30.14 in WNW 3.5 mph 11.5 mph 48 % 0.00 in
15:24 51.8 °F 32.7 °F 30.14 in West 6.1 mph 9.2 mph 48 % 0.00 in
15:29 51.7 °F 32.1 °F 30.14 in WNW 7.4 mph 15.0 mph 47 % 0.00 in
15:31 51.7 °F 31.6 °F 30.15 in WSW 7.2 mph 11.5 mph 46 % 0.00 in
15:36 51.7 °F 33.1 °F 30.15 in NNW 6.1 mph 10.4 mph 49 % 0.00 in
15:37 51.7 °F 32.6 °F 30.15 in North 5.5 mph 9.2 mph 48 % 0.00 in
15:40 51.7 °F 33.1 °F 30.15 in WNW 4.4 mph 11.5 mph 49 % 0.00 in
15:42 51.8 °F 33.2 °F 30.15 in NW 3.4 mph 13.8 mph 49 % 0.00 in
15:43 51.8 °F 33.2 °F 30.15 in NNW 6.9 mph 11.5 mph 49 % 0.00 in
15:50 51.9 °F 33.3 °F 30.16 in NW 5.0 mph 12.7 mph 49 % 0.00 in
15:52 51.9 °F 33.3 °F 30.15 in NNW 5.4 mph 9.0 mph 49 % 0.00 in
15:56 51.9 °F 32.3 °F 30.16 in NW 4.5 mph 10.4 mph 47 % 0.00 in
15:58 51.8 °F 32.7 °F 30.16 in WNW 6.5 mph 14.0 mph 48 % 0.00 in
16:04 51.7 °F 32.6 °F 30.15 in WNW 5.8 mph 13.8 mph 48 % 0.00 in
16:05 51.7 °F 33.1 °F 30.16 in WNW 6.5 mph 13.8 mph 49 % 0.00 in
16:08 51.7 °F 33.1 °F 30.15 in WNW 6.4 mph 15.0 mph 49 % 0.00 in
16:14 51.5 °F 32.4 °F 30.15 in West 8.3 mph 12.7 mph 48 % 0.00 in
16:19 51.4 °F 32.3 °F 30.15 in NE 4.6 mph 11.0 mph 48 % 0.00 in
16:22 51.4 °F 32.3 °F 30.16 in North 8.2 mph 12.7 mph 48 % 0.00 in
16:34 51.0 °F 33.0 °F 30.16 in West 13.0 mph 13.0 mph 50 % 0.00 in
16:39 50.8 °F 32.3 °F 30.16 in WNW 2.2 mph 6.9 mph 49 % 0.00 in
16:41 50.8 °F 32.3 °F 30.16 in NNW 7.9 mph 16.1 mph 49 % 0.00 in
16:45 50.7 °F 32.2 °F 30.16 in NW 7.1 mph 12.7 mph 49 % 0.00 in
16:50 50.7 °F 31.7 °F 30.16 in WNW 9.5 mph 16.1 mph 48 % 0.00 in
16:52 50.6 °F 31.6 °F 30.16 in NW 5.1 mph 9.2 mph 48 % 0.00 in
16:55 50.6 °F 32.1 °F 30.16 in NW 5.0 mph 10.4 mph 49 % 0.00 in
17:00 50.6 °F 31.6 °F 30.17 in NNW 6.9 mph 17.3 mph 48 % 0.00 in
17:05 50.5 °F 31.5 °F 30.17 in WNW 7.0 mph 17.0 mph 48 % 0.00 in
17:10 50.5 °F 31.5 °F 30.17 in WNW 7.4 mph 11.5 mph 48 % 0.00 in
17:15 50.4 °F 32.4 °F 30.17 in WNW 6.4 mph 12.7 mph 50 % 0.00 in
17:20 50.3 °F 32.4 °F 30.17 in NNW 5.3 mph 11.5 mph 50 % 0.00 in
17:22 50.2 °F 31.8 °F 30.17 in WNW 7.5 mph 15.0 mph 49 % 0.00 in
17:27 50.1 °F 32.7 °F 30.17 in West 6.2 mph 15.0 mph 51 % 0.00 in
17:30 50.1 °F 32.7 °F 30.18 in West 6.7 mph 13.0 mph 51 % 0.00 in
17:32 50.1 °F 32.7 °F 30.18 in WNW 9.6 mph 17.3 mph 51 % 0.00 in
17:33 50.1 °F 32.2 °F 30.18 in WNW 7.5 mph 17.3 mph 50 % 0.00 in
17:38 50.0 °F 32.6 °F 30.18 in WSW 8.3 mph 19.6 mph 51 % 0.00 in
17:43 49.9 °F 32.0 °F 30.19 in North 10.8 mph 17.3 mph 50 % 0.00 in
17:48 49.8 °F 31.9 °F 30.19 in North 5.5 mph 9.2 mph 50 % 0.00 in
17:51 49.7 °F 33.2 °F 30.19 in WNW 6.1 mph 12.7 mph 53 % 0.00 in
17:56 49.7 °F 32.8 °F 30.20 in NW 9.9 mph 16.1 mph 52 % 0.00 in
18:01 49.6 °F 32.2 °F 30.20 in NW 4.3 mph 10.4 mph 51 % 0.00 in
18:06 49.6 °F 32.7 °F 30.20 in WNW 4.0 mph 11.5 mph 52 % 0.00 in
18:11 49.5 °F 31.6 °F 30.20 in West 6.3 mph 18.4 mph 50 % 0.00 in
18:16 49.4 °F 32.5 °F 30.20 in NNW 3.7 mph 10.4 mph 52 % 0.00 in
18:21 49.4 °F 32.0 °F 30.19 in NW 6.5 mph 11.5 mph 51 % 0.00 in
18:26 49.4 °F 32.5 °F 30.20 in WNW 3.4 mph 11.5 mph 52 % 0.00 in
18:31 49.3 °F 32.9 °F 30.20 in NW 5.9 mph 11.5 mph 53 % 0.00 in
18:42 49.4 °F 33.0 °F 30.22 in NNW 6.2 mph 16.0 mph 53 % 0.00 in
18:47 49.4 °F 32.0 °F 30.21 in WNW 8.0 mph 17.3 mph 51 % 0.00 in
18:52 49.4 °F 33.0 °F 30.21 in West 8.6 mph 13.8 mph 53 % 0.00 in
18:57 49.3 °F 30.9 °F 30.22 in West 6.6 mph 12.7 mph 49 % 0.00 in
19:02 49.3 °F 32.4 °F 30.22 in WNW 3.8 mph 19.6 mph 52 % 0.00 in
19:07 49.4 °F 32.0 °F 30.22 in NW 9.2 mph 20.7 mph 51 % 0.00 in
19:12 49.3 °F 31.9 °F 30.23 in NNW 6.8 mph 18.4 mph 51 % 0.00 in
19:17 49.3 °F 31.9 °F 30.23 in NNW 8.4 mph 16.1 mph 51 % 0.00 in
19:20 49.3 °F 31.9 °F 30.23 in WNW 4.2 mph 9.2 mph 51 % 0.00 in
19:25 49.2 °F 31.8 °F 30.24 in NNW 2.4 mph 9.2 mph 51 % 0.00 in
19:30 49.1 °F 31.7 °F 30.24 in NW 7.0 mph 10.4 mph 51 % 0.00 in
19:35 49.1 °F 31.7 °F 30.24 in NNW 6.0 mph 16.0 mph 51 % 0.00 in
19:40 49.0 °F 32.6 °F 30.25 in NW 3.8 mph 5.8 mph 53 % 0.00 in
19:45 48.8 °F 31.5 °F 30.24 in North 3.0 mph 14.0 mph 51 % 0.00 in
19:50 48.7 °F 31.4 °F 30.25 in NNW 5.0 mph 12.0 mph 51 % 0.00 in
19:55 48.6 °F 32.2 °F 30.24 in North 5.5 mph 11.5 mph 53 % 0.00 in
20:01 48.4 °F 31.1 °F 30.25 in WNW 6.1 mph 12.7 mph 51 % 0.00 in
20:06 48.3 °F 31.9 °F 30.25 in NNW 6.3 mph 11.5 mph 53 % 0.00 in
20:07 48.3 °F 31.9 °F 30.24 in NNW 4.2 mph 11.5 mph 53 % 0.00 in
20:12 48.2 °F 31.9 °F 30.24 in North 5.1 mph 12.7 mph 53 % 0.00 in
20:17 48.1 °F 32.2 °F 30.25 in NNE 6.8 mph 11.5 mph 54 % 0.00 in
20:22 47.9 °F 31.6 °F 30.25 in NNE 5.7 mph 10.4 mph 53 % 0.00 in
20:27 47.8 °F 32.4 °F 30.25 in NNW 5.8 mph 12.7 mph 55 % 0.00 in
20:32 47.7 °F 31.4 °F 30.26 in North 5.0 mph 10.4 mph 53 % 0.00 in
20:37 47.6 °F 30.8 °F 30.26 in NE 4.8 mph 11.5 mph 52 % 0.00 in
20:42 47.5 °F 30.7 °F 30.26 in NW 4.0 mph 11.5 mph 52 % 0.00 in
20:47 47.3 °F 30.5 °F 30.27 in NNW 5.2 mph 9.2 mph 52 % 0.00 in
20:53 47.1 °F 30.4 °F 30.27 in NNW 4.7 mph 9.2 mph 52 % 0.00 in
20:58 47.0 °F 30.7 °F 30.27 in North 5.3 mph 11.0 mph 53 % 0.00 in
21:03 46.9 °F 30.6 °F 30.27 in NW 3.1 mph 6.9 mph 53 % 0.00 in
21:08 46.8 °F 30.6 °F 30.28 in NNW 3.0 mph 6.9 mph 53 % 0.00 in
21:13 46.7 °F 30.5 °F 30.28 in North 4.4 mph 8.1 mph 53 % 0.00 in
21:18 46.6 °F 30.8 °F 30.28 in NNW 6.8 mph 11.5 mph 54 % 0.00 in
21:23 46.4 °F 30.6 °F 30.28 in NNW 2.4 mph 5.0 mph 54 % 0.00 in
21:28 46.3 °F 30.5 °F 30.29 in North 4.1 mph 6.9 mph 54 % 0.00 in
21:33 46.3 °F 30.5 °F 30.29 in NNE 6.5 mph 13.8 mph 54 % 0.00 in
21:38 46.2 °F 30.5 °F 30.29 in NNW 5.1 mph 10.0 mph 54 % 0.00 in
21:42 46.1 °F 30.4 °F 30.29 in North 3.0 mph 11.5 mph 54 % 0.00 in
21:47 46.0 °F 30.7 °F 30.30 in NNW 3.4 mph 12.7 mph 55 % 0.00 in
21:52 45.9 °F 29.7 °F 30.30 in NNE 6.6 mph 13.8 mph 53 % 0.00 in
21:57 45.8 °F 29.6 °F 30.30 in NNW 5.0 mph 10.4 mph 53 % 0.00 in
22:03 45.8 °F 30.1 °F 30.30 in NNW 6.7 mph 13.8 mph 54 % 0.00 in
22:08 45.7 °F 30.0 °F 30.30 in NNW 7.0 mph 12.7 mph 54 % 0.00 in
22:13 45.6 °F 29.9 °F 30.30 in NNW 3.9 mph 8.1 mph 54 % 0.00 in
22:21 45.5 °F 30.3 °F 30.30 in NNE 5.1 mph 8.1 mph 55 % 0.00 in
22:26 45.4 °F 29.7 °F 30.30 in NW 4.0 mph 11.5 mph 54 % 0.00 in
22:31 45.4 °F 30.2 °F 30.30 in North 6.9 mph 11.5 mph 55 % 0.00 in
22:36 45.4 °F 29.7 °F 30.31 in NW 2.3 mph 6.9 mph 54 % 0.00 in
22:41 45.3 °F 30.1 °F 30.30 in NW 4.5 mph 11.5 mph 55 % 0.00 in
22:46 45.3 °F 30.1 °F 30.31 in NNE 2.0 mph 5.8 mph 55 % 0.00 in
22:52 45.2 °F 30.0 °F 30.30 in North 2.9 mph 8.1 mph 55 % 0.00 in
22:57 45.1 °F 29.9 °F 30.30 in North 4.3 mph 9.0 mph 55 % 0.00 in
22:58 45.1 °F 29.4 °F 30.30 in NNW 4.7 mph 11.5 mph 54 % 0.00 in
23:03 45.0 °F 29.8 °F 30.30 in WNW 1.3 mph 5.0 mph 55 % 0.00 in
23:05 45.0 °F 29.3 °F 30.30 in NNW 4.4 mph 8.1 mph 54 % 0.00 in
23:10 44.9 °F 29.2 °F 30.30 in North 0.6 mph 3.5 mph 54 % 0.00 in
23:15 44.9 °F 29.2 °F 30.30 in WNW 5.1 mph 8.0 mph 54 % 0.00 in
23:20 44.8 °F 30.0 °F 30.30 in NW 0.6 mph 4.0 mph 56 % 0.00 in
23:27 44.7 °F 29.5 °F 30.31 in WNW 6.4 mph 11.5 mph 55 % 0.00 in
23:32 44.6 °F 29.4 °F 30.30 in North 4.4 mph 10.4 mph 55 % 0.00 in
23:34 44.6 °F 29.0 °F 30.31 in WNW 3.4 mph 7.0 mph 54 % 0.00 in
23:39 44.6 °F 29.4 °F 30.31 in NNW 2.3 mph 5.8 mph 55 % 0.00 in
23:44 44.5 °F 28.9 °F 30.31 in North 1.1 mph 3.5 mph 54 % 0.00 in
23:49 44.4 °F 28.8 °F 30.31 in WNW 2.0 mph 6.0 mph 54 % 0.00 in
23:54 44.4 °F 28.3 °F 30.30 in NW 3.7 mph 9.2 mph 53 % 0.00 in
23:59 44.3 °F 28.2 °F 30.30 in NNW 4.6 mph 8.1 mph 53 % 0.00 in
Crab Meadow Weather
Compliments of Weather Underground - 3 mb

Script developed by  Jim McMurry - jmcmurry@mwt.net Adapted for the template by  Wim van der Kuil - Leuven-Template.eu

Weather Terms: Heavy Snow Warning - Snowfall of 6 inches or more in 12 hours or less, or 8 inches or more in 24 hours or less.